Aktualne dane pomiarowe

Uwaga, wersja testowa! Automatyczne pobieranie danych za pomocą narzędzi lub skryptów to umożliwiających jest zabronione.

Dane meteo z obszaru Polski uzyskane na podstawie depesz SYNOP pobieranych co godzinę z NWS. Najedź myszką na symbol przedstawiony w tabeli, aby uzyskać informacje co do jego znaczenia. Prosimy pamiętać, że to testowa wersja strony, która jeszcze nie jest ukończona. Stworzono również jest krótki FAQ dotyczący korzystania z tej podstrony Anomalie temperatury w chwili obecnej odniesione są do okresu referencyjnego 1951-2016. Okres ten będzie później zmieniony na 1981-2010. Kliknij ikonę aby pobrać plik CSV. Kliknij ikonę aby wygenerować mapę synoptyczną dla danego terminu.

Wybierz Datę:    

        

Chojnice (12235)

Dane terminowe dla wybranej stacji. Kliknij datę, aby otrzymać dane z tego terminu dla wszystkich stacji.

TemperaturaZachmurzenieWiatrCiśnienieOpadyPogoda
 Data t td wb tx tn tg rh  Nt Nl Cl Cm Ch ws wd g1 g2 wx mslp ppp ch 24h 12h t ww ww w1 w2  
2019-07-04 23:00:00 14.9 9.4 11.5--- 7027.0wx-wx7wx---1012.6 992.1 -2.0---wx---
2019-07-04 22:00:00 15.2 9.0 11.4--- 6730.0wxwxwxwx6wx111161013.3 992.8 -1.8---wx---
2019-07-04 21:00:00 15.9 7.7 11.1--- 5840.0wxwxwx6wx-1161013.8 993.4 -2.1---------
2019-07-04 20:00:00 15.8 7.4 10.9--- 5730.0wxwxwx6wx--61014.6 994.1 -2.1---------
2019-07-04 19:00:00 16.1 7.1 10.9--- 5545.0wxwxwxwx6wx-1161015.0 994.6 -2.1---------
2019-07-04 18:00:00 16.3 6.8 10.9 17.5 11.1- 5345.0wxwxwx5wx-1351016.0 995.5 -2.1--12------
2019-07-04 17:00:00 16.2 6.7 10.8--- 5345.0wxwxwx5wx-1151016.7 996.2 -1.8---------
2019-07-04 16:00:00 16.4 6.6 10.9--- 5240.0wxwxwx5wx10--1017.2 996.7 -1.4---------
2019-07-04 15:00:00 15.9 7.0 10.8--- 5640.0wxwxwx4wx91341018.1 997.6 -1.1---------
2019-07-04 14:00:00 16.7 6.3 10.9--- 5030.0wxwxwxwx6wx-1261018.5 998.0 -1.4---------
2019-07-04 13:00:00 17.0 5.1 10.6--- 4530.0wxwxwx7wx-971018.6 998.1 -0.9---------
2019-07-04 12:00:00 16.1 6.9 10.9--- 5430.0wxwxwxwxwx5wx---1019.2 998.7 -0.3---wx-w1--
2019-07-04 11:00:00 15.1 7.2 10.5--- 5930.0wxwxwx5wx-1351020.0 999.4 0.1---------
2019-07-04 10:00:00 15.6 6.1 10.3--- 5329.0wxwxwx6wx101061019.6 999.0 0.0---------
2019-07-04 09:00:00 14.9 6.0 9.9--- 5535.0wxwxwx5wx-1151019.6 999.0 -0.1---wx-w1--
2019-07-04 08:00:00 13.4 7.7 10.0--- 6830.0wxwxwxwx5wx111151020.0 999.3 0.6---------
2019-07-04 07:00:00 13.2 7.9 10.0--- 7028.0wxwxwxwx6wx11--1019.7 999.0 0.1---wx---
2019-07-04 06:00:00 11.1 8.6 9.4 14.2 7.9 8 858.0wxwxwxwx5wx-951020.0 999.1 0.4 1.5 0.412wx-w1- 6.3
2019-07-04 05:00:00 10.8 7.8 8.9--- 8240.0wxwxwx5wx--51019.6 998.7 0.0---wx---
2019-07-04 04:00:00 9.9 7.9 8.6--- 8740.0wxwxwx4wx--41019.9 998.9 0.1---wx---
2019-07-04 03:00:00 10.1 8.1 8.8--- 877.0wxwxwx4wx--41019.7 998.7 -0.1---wx---
2019-07-04 02:00:00 9.4 7.4 8.1--- 8735.0wxwxwxwx4wx--41019.7 998.7 -0.3---------
2019-07-04 01:00:00 9.5 7.4 8.1--- 8745.0wxwxwxwx3wx--31019.8 998.8 -0.7---------
2019-07-04 00:00:00 8.1 7.1 7.4--- 9340.0wxwxwx3wx-1131019.9 998.8 -0.5- 0.16wx-w1--
2019-07-03 23:00:00 10.6 7.9 8.8--- 8350.0wxwxwx3wx--31019.9 999.0 -0.4---------
2019-07-03 22:00:00 10.8 7.4 8.6--- 8050.0wxwxwx4wx-1041020.4 999.5 0.6---wx---
2019-07-03 21:00:00 11.2 6.6 8.4--- 7350.0wxwxwxwx3wx-1131020.2 999.3 0.3---wx-w1--
2019-07-03 20:00:00 10.9 6.5 8.2--- 7450.0wxwxwxwx3wx--31020.3 999.4 0.5---------
2019-07-03 19:00:00 12.9 6.1 9.0--- 6345.0wxwxwx2wx-1121019.7 998.9 0.0---wx---
2019-07-03 18:00:00 14.2 5.9 9.5 16.6 11.8- 5735.0wxwxwx3wx-1231019.7 999.0 0.2- 1.012wx-w1--
2019-07-03 17:00:00 15.1 8.2 11.0--- 6335.0wxwxwx4wx--41019.5 998.9 -0.4---------
2019-07-03 16:00:00 13.9 9.0 10.8--- 7235.0wxwxwx4wx--41019.6 998.9 0.4---------
2019-07-03 15:00:00 14.2 10.5 11.8--- 7829.0wxwxwx4wx-1241019.5 998.8 0.0---wx---
2019-07-03 14:00:00 12.1 10.3 10.9--- 8912.0wxwxwx5wx-1251020.1 999.3 0.6---wx-w1--
2019-07-03 13:00:00 16.4 7.7 11.4--- 5630.0wxwxwx6wx111261019.0 998.5 -0.1---------
2019-07-03 12:00:00 14.9 8.2 10.9--- 6435.0wxwxwx6wx11--1019.4 998.8 0.6---wx-w1--
2019-07-03 11:00:00 14.3 9.6 11.3--- 7330.0wxwxwx5wx111151019.4 998.7 0.9---wx---
2019-07-03 10:00:00 14.3 7.4 10.2--- 6322.0wxwxwx5wx111151019.3 998.6 1.2---wx---
2019-07-03 09:00:00 13.7 7.1 9.8--- 6424.0wxwxwx7wx-1071018.9 998.2 1.0---wx---
2019-07-03 08:00:00 12.9 7.0 9.4--- 6719.0wxwxwx3wx-831018.5 997.8 0.8---wx---
2019-07-03 07:00:00 13.5 5.7 9.1--- 5930.0wxwxwx4wx-941018.1 997.4 0.6---------
2019-07-03 06:00:00 13.2 6.4 9.3 14.9 10.2 10 6330.0wxwxwxwx5wx--51017.9 997.2 0.5 0.5 0.012----- 5.7
2019-07-03 05:00:00 11.6 6.2 8.4--- 6930.0wx-wx4wx--41017.8 997.0 0.6---------
2019-07-03 04:00:00 10.6 6.3 8.0--- 7535.0wxwxwxwx4wx--41017.7 996.8 0.4---------
2019-07-03 03:00:00 10.4 6.1 7.8--- 7535.0wxwxwxwx4wx--41017.6 996.7 0.3---------
2019-07-03 02:00:00 11.6 6.2 8.4--- 6950.0wxwxwxwx4wx--41017.2 996.4 0.1---------
2019-07-03 01:00:00 11.6 5.8 8.2--- 6823.0wxwxwxwx4wx--41017.2 996.4 0.1---------
2019-07-03 00:00:00 11.8 6.0 8.4--- 6845.0wx-wx4wx-1041017.2 996.4 -0.1- 0.06------
1.1 ms

 

Print Friendly, PDF & Email